createdAt,value
2018-11-14T17:58:10.385Z,6.07
2018-11-14T18:00:41.652Z,6.04
2018-11-14T18:03:12.275Z,6.05
2018-11-14T18:05:42.870Z,6.09
2018-11-14T18:08:13.984Z,6.10
2018-11-14T18:10:47.603Z,6.07
2018-11-14T18:13:18.057Z,6.09
2018-11-14T18:15:48.606Z,6.08
2018-11-14T18:18:19.088Z,6.04
2018-11-14T18:20:49.790Z,6.04
2018-11-14T18:23:22.173Z,6.04
2018-11-14T18:25:53.076Z,6.07
2018-11-14T18:28:23.618Z,6.06
2018-11-14T18:30:55.396Z,6.04
2018-11-14T18:33:26.723Z,6.07
2018-11-14T18:35:57.130Z,6.08
2018-11-14T18:38:27.661Z,6.08
2018-11-14T18:40:58.224Z,6.08
2018-11-14T18:47:16.109Z,6.09
2018-11-14T18:49:48.178Z,6.08
2018-11-14T18:52:19.252Z,6.06
2018-11-14T18:54:49.880Z,6.06
2018-11-14T18:57:22.024Z,6.08
2018-11-14T18:59:53.364Z,6.03
2018-11-14T19:02:25.027Z,5.99
2018-11-14T19:04:58.853Z,5.99
2018-11-14T19:07:29.765Z,6.00
2018-11-14T19:10:01.031Z,5.98
2018-11-14T19:12:32.086Z,5.95
2018-11-14T19:15:02.877Z,5.96
2018-11-14T19:17:33.622Z,5.97
2018-11-14T19:20:04.354Z,5.98
2018-11-14T19:22:40.539Z,5.98
2018-11-14T19:25:13.519Z,5.97
2018-11-14T19:27:44.985Z,5.92
2018-11-14T19:30:17.746Z,5.92
2018-11-14T19:32:49.874Z,5.91
2018-11-14T19:35:20.757Z,5.89
2018-11-14T19:37:52.789Z,5.88
2018-11-14T19:40:25.404Z,5.89
2018-11-14T19:42:57.541Z,5.90
2018-11-14T19:45:29.572Z,5.88
2018-11-14T19:48:00.248Z,5.85
2018-11-14T19:50:31.025Z,5.89
2018-11-14T19:53:01.840Z,5.86
2018-11-14T19:55:32.917Z,5.85
2018-11-14T19:58:04.499Z,5.82
2018-11-14T20:00:36.089Z,5.82
2018-11-14T20:03:07.222Z,5.75
2018-11-14T20:05:40.076Z,5.75
2018-11-14T20:08:10.907Z,5.78
2018-11-14T20:10:41.700Z,5.72
2018-11-14T20:13:12.674Z,5.71
2018-11-14T20:15:43.229Z,5.73
2018-11-14T20:18:13.815Z,5.77
2018-11-14T20:20:44.285Z,5.80
2018-11-14T20:23:14.845Z,5.83
2018-11-14T20:25:45.580Z,5.84
2018-11-14T20:28:17.194Z,5.82
2018-11-14T20:30:47.871Z,5.82
2018-11-14T20:33:18.555Z,5.79
2018-11-14T20:35:49.063Z,5.79
2018-11-14T20:38:19.775Z,5.78
2018-11-14T20:40:50.479Z,5.82
2018-11-14T20:43:20.880Z,5.86
2018-11-14T20:45:51.356Z,5.83
2018-11-14T20:48:21.962Z,5.76
2018-11-14T20:50:52.524Z,5.81
2018-11-14T20:53:23.111Z,5.79
2018-11-14T20:55:54.058Z,5.79
2018-11-14T20:58:26.034Z,5.81
2018-11-14T21:00:56.536Z,5.76
2018-11-14T21:03:27.119Z,5.74
2018-11-14T21:05:57.833Z,5.72
2018-11-14T21:08:28.431Z,5.74
2018-11-14T21:10:59.007Z,5.77
2018-11-14T21:13:29.419Z,5.74
2018-11-14T21:15:59.932Z,5.76
2018-11-14T21:18:34.244Z,5.70
2018-11-14T21:21:05.067Z,5.67
2018-11-14T21:23:35.618Z,5.66
2018-11-14T21:26:06.279Z,5.67
2018-11-14T21:28:36.739Z,5.60
2018-11-14T21:31:08.652Z,5.57
2018-11-14T21:33:39.253Z,5.59
2018-11-14T21:36:09.428Z,5.54
2018-11-14T21:38:40.057Z,5.51
2018-11-14T21:41:10.460Z,5.53
2018-11-14T21:43:41.023Z,5.47
2018-11-14T21:46:11.579Z,5.49
2018-11-14T21:48:42.140Z,5.44
2018-11-14T21:51:12.776Z,5.41
2018-11-14T21:53:43.434Z,5.37
2018-11-14T21:56:13.910Z,5.33
2018-11-14T21:58:44.143Z,5.31
2018-11-14T22:01:14.711Z,5.34
2018-11-14T22:03:45.334Z,5.35
2018-11-14T22:06:15.882Z,5.33
2018-11-14T22:08:46.334Z,5.35
2018-11-14T22:11:17.009Z,5.35
2018-11-14T22:13:47.609Z,5.33
2018-11-14T22:16:18.180Z,5.35
2018-11-14T22:19:01.580Z,5.36
2018-11-14T22:21:33.205Z,5.37
2018-11-14T22:24:04.454Z,5.38
2018-11-14T22:26:34.951Z,5.40
2018-11-14T22:29:05.514Z,5.38
2018-11-14T22:31:36.066Z,5.42
2018-11-14T22:34:07.032Z,5.45
2018-11-14T22:36:37.496Z,5.46
2018-11-14T22:39:09.456Z,5.44
2018-11-14T22:41:39.863Z,5.48
2018-11-14T22:44:10.278Z,5.45
2018-11-14T22:46:40.954Z,5.46
2018-11-14T22:49:11.459Z,5.45
2018-11-14T22:51:41.880Z,5.45
2018-11-14T22:54:12.352Z,5.45
2018-11-14T22:56:42.877Z,5.43
2018-11-14T22:59:13.293Z,5.47
2018-11-14T23:01:43.780Z,5.49
2018-11-14T23:04:14.182Z,5.46
2018-11-14T23:06:44.839Z,5.52
2018-11-14T23:09:15.226Z,5.50
2018-11-14T23:11:45.758Z,5.52
2018-11-14T23:14:16.172Z,5.55
2018-11-14T23:16:46.783Z,5.54
2018-11-14T23:19:17.158Z,5.54
2018-11-14T23:21:47.576Z,5.53
2018-11-14T23:24:18.153Z,5.51
2018-11-14T23:26:48.697Z,5.49
2018-11-14T23:29:19.176Z,5.50
2018-11-14T23:31:49.777Z,5.56
2018-11-14T23:34:20.292Z,5.56
2018-11-14T23:36:50.855Z,5.62
2018-11-14T23:39:21.207Z,5.61
2018-11-14T23:41:51.844Z,5.56
2018-11-14T23:44:22.425Z,5.58
2018-11-14T23:46:53.078Z,5.59
2018-11-14T23:49:23.543Z,5.58
2018-11-14T23:51:54.022Z,5.57
2018-11-14T23:54:24.490Z,5.57
2018-11-14T23:56:54.944Z,5.57
2018-11-14T23:59:25.665Z,5.57
